Lawtey, Florida
Current Conditions -  °F | °C
As of 10:50 AM on Thursday 23 Oct 2014 (Local Time) from KVQQ Reporting Station
Clear Clear  
Wind Chill: 68°   Ceiling: Unl
Heat Index: 68°   Visibility: 10mi
Dew Point: 55°   Wind: 7mph
Humidity: 64%   Direction: 20°NNE
Pressure: 30.08"   Gusts: NA
Location:  30.04°N, 82.07°W
Report Text: KVQQ 231450Z 02006KT 10SM CLR 20/13 A3008
Loading
Personal Weather Stations






























Interactive Weather Map
Tropical Storm Tracking
New forecast layout! Learn more

10-Day Weather Forecast

Advertisements
Track Severe Weather on mobile